createdAt,value
2018-03-30T00:02:17.240Z,64.96
2018-03-30T00:04:43.547Z,64.41
2018-03-30T00:07:09.901Z,64.16
2018-03-30T00:09:54.777Z,64.00
2018-03-30T00:12:21.800Z,63.92
2018-03-30T00:14:48.082Z,63.48
2018-03-30T00:17:14.401Z,63.21
2018-03-30T00:19:41.416Z,63.00
2018-03-30T00:22:07.750Z,62.77
2018-03-30T00:24:34.052Z,62.46
2018-03-30T00:27:00.354Z,62.55
2018-03-30T00:29:26.635Z,62.79
2018-03-30T00:31:52.947Z,62.87
2018-03-30T00:34:19.213Z,63.70
2018-03-30T00:36:45.513Z,64.04
2018-03-30T00:39:11.799Z,64.44
2018-03-30T00:41:38.065Z,64.43
2018-03-30T00:44:04.349Z,64.46
2018-03-30T00:46:31.358Z,64.96
2018-03-30T00:48:57.607Z,65.12
2018-03-30T00:51:23.886Z,64.31
2018-03-30T00:53:50.151Z,64.77
2018-03-30T00:56:16.411Z,64.59
2018-03-30T00:58:43.410Z,65.16
2018-03-30T01:01:09.670Z,65.47
2018-03-30T01:03:36.776Z,65.08
2018-03-30T01:06:03.072Z,64.21
2018-03-30T01:08:29.542Z,63.27
2018-03-30T01:10:56.804Z,63.47
2018-03-30T01:13:23.099Z,64.35
2018-03-30T01:15:49.384Z,64.00
2018-03-30T01:18:15.652Z,64.53
2018-03-30T01:20:42.702Z,64.83
2018-03-30T01:23:08.962Z,64.92
2018-03-30T01:25:35.343Z,65.29
2018-03-30T01:28:02.434Z,65.08
2018-03-30T01:30:28.749Z,65.32
2018-03-30T01:32:55.011Z,65.88
2018-03-30T01:35:21.299Z,66.07
2018-03-30T01:37:48.383Z,66.24
2018-03-30T01:40:14.706Z,66.10
2018-03-30T01:42:41.083Z,66.32
2018-03-30T01:45:07.366Z,66.73
2018-03-30T01:47:33.668Z,67.15
2018-03-30T01:50:00.660Z,67.39
2018-03-30T01:52:26.958Z,67.48
2018-03-30T01:54:53.994Z,67.55
2018-03-30T01:57:20.992Z,67.66
2018-03-30T01:59:47.266Z,68.19
2018-03-30T02:02:14.288Z,68.16
2018-03-30T02:04:40.618Z,68.04
2018-03-30T02:07:06.900Z,67.87
2018-03-30T02:09:33.154Z,68.13
2018-03-30T02:11:59.432Z,67.72
2018-03-30T02:14:26.509Z,68.17
2018-03-30T02:16:52.803Z,68.34
2018-03-30T02:19:19.133Z,68.72
2018-03-30T02:21:45.409Z,68.96
2018-03-30T02:24:11.728Z,69.00
2018-03-30T02:26:38.076Z,69.27
2018-03-30T02:29:04.391Z,69.14
2018-03-30T02:31:30.692Z,69.31
2018-03-30T02:33:56.970Z,69.43
2018-03-30T02:36:23.262Z,69.64
2018-03-30T02:38:49.531Z,70.16
2018-03-30T02:41:15.782Z,70.12
2018-03-30T02:43:42.085Z,69.48
2018-03-30T02:46:08.744Z,69.67
2018-03-30T02:48:35.053Z,70.05
2018-03-30T02:51:01.305Z,70.35
2018-03-30T02:53:27.651Z,70.32
2018-03-30T02:56:00.929Z,70.53
2018-03-30T02:58:27.258Z,70.84
2018-03-30T03:00:53.531Z,70.69
2018-03-30T03:03:20.578Z,71.01
2018-03-30T03:05:47.679Z,71.15
2018-03-30T03:08:14.005Z,71.08
2018-03-30T03:10:40.311Z,71.06
2018-03-30T03:13:06.636Z,71.13
2018-03-30T03:15:32.914Z,70.87
2018-03-30T03:17:59.180Z,70.63
2018-03-30T03:20:26.212Z,70.26
2018-03-30T03:22:52.512Z,70.42
2018-03-30T03:25:18.821Z,70.33
2018-03-30T03:27:45.103Z,70.42
2018-03-30T03:30:11.464Z,70.22
2018-03-30T03:32:37.713Z,70.19
2018-03-30T03:35:03.989Z,70.19
2018-03-30T03:37:30.271Z,69.99
2018-03-30T03:39:56.496Z,70.38
2018-03-30T03:42:22.776Z,70.33
2018-03-30T03:44:49.040Z,70.40
2018-03-30T03:47:16.117Z,70.52
2018-03-30T03:49:42.423Z,70.62
2018-03-30T03:52:09.979Z,70.50
2018-03-30T03:54:37.027Z,70.27
2018-03-30T03:57:04.078Z,70.20
2018-03-30T03:59:30.416Z,70.23
2018-03-30T04:01:56.702Z,70.73
2018-03-30T04:04:22.988Z,70.73
2018-03-30T04:06:49.271Z,71.19
2018-03-30T04:09:15.567Z,71.08
2018-03-30T04:11:42.678Z,70.93
2018-03-30T04:14:09.728Z,70.80
2018-03-30T04:16:36.088Z,70.48
2018-03-30T04:19:02.358Z,70.30
2018-03-30T04:21:28.664Z,70.48
2018-03-30T04:23:55.003Z,71.00
2018-03-30T04:26:21.325Z,71.00
2018-03-30T04:28:47.619Z,70.75
2018-03-30T04:31:14.035Z,70.77
2018-03-30T04:33:41.049Z,70.77
2018-03-30T04:36:07.310Z,70.85
2018-03-30T04:38:34.323Z,70.63
2018-03-30T04:41:00.951Z,70.81
2018-03-30T04:43:27.203Z,70.80
2018-03-30T04:45:53.488Z,70.61
2018-03-30T04:48:19.778Z,70.95
2018-03-30T04:50:46.059Z,71.10
2018-03-30T04:53:12.339Z,70.96
2018-03-30T04:55:38.640Z,70.61
2018-03-30T04:58:04.921Z,70.33
2018-03-30T05:00:31.952Z,69.74
2018-03-30T05:02:59.294Z,69.82
2018-03-30T05:05:25.610Z,69.25
2018-03-30T05:07:51.892Z,68.64
2018-03-30T05:10:18.870Z,68.46
2018-03-30T05:12:45.143Z,68.32
2018-03-30T05:15:12.145Z,68.26
2018-03-30T05:17:38.409Z,68.04
2018-03-30T05:20:05.333Z,67.61
2018-03-30T05:22:31.567Z,67.30
2018-03-30T05:24:57.865Z,67.29
2018-03-30T05:27:24.143Z,67.43
2018-03-30T05:29:50.479Z,67.12
2018-03-30T05:32:16.739Z,66.22
2018-03-30T05:34:43.006Z,64.99
2018-03-30T05:37:09.359Z,64.23
2018-03-30T05:39:35.638Z,63.37
2018-03-30T05:42:01.924Z,62.64
2018-03-30T05:44:28.237Z,62.16
2018-03-30T05:46:54.512Z,61.58
2018-03-30T05:49:21.596Z,60.94
2018-03-30T05:51:48.803Z,60.58
2018-03-30T05:54:15.854Z,59.71
2018-03-30T05:56:42.841Z,59.01
2018-03-30T05:59:09.141Z,58.88
2018-03-30T06:01:35.431Z,59.10
2018-03-30T06:04:01.664Z,58.39
2018-03-30T06:06:27.963Z,58.06
2018-03-30T06:08:54.223Z,57.45
2018-03-30T06:11:20.498Z,57.01
2018-03-30T06:13:46.765Z,56.56
2018-03-30T06:16:12.992Z,56.23
2018-03-30T06:18:39.279Z,55.43
2018-03-30T06:21:06.286Z,55.46
2018-03-30T06:23:32.622Z,54.78
2018-03-30T06:25:58.905Z,54.63
2018-03-30T06:28:25.221Z,53.87
2018-03-30T06:30:51.484Z,53.24
2018-03-30T06:33:17.766Z,53.58
2018-03-30T06:35:44.819Z,53.16
2018-03-30T06:38:11.548Z,52.75
2018-03-30T06:40:38.596Z,52.61
2018-03-30T06:43:05.794Z,51.98
2018-03-30T06:45:32.074Z,51.67
2018-03-30T06:47:58.386Z,50.84
2018-03-30T06:50:24.678Z,50.01
2018-03-30T06:52:50.942Z,49.71
2018-03-30T06:55:17.233Z,50.12
2018-03-30T06:57:43.555Z,50.19
2018-03-30T07:00:09.769Z,50.38
2018-03-30T07:02:36.779Z,49.78
2018-03-30T07:05:03.075Z,48.78
2018-03-30T07:07:29.437Z,49.82
2018-03-30T07:09:55.707Z,49.66
2018-03-30T07:12:22.751Z,48.67
2018-03-30T07:14:49.762Z,47.99
2018-03-30T07:17:16.105Z,47.79
2018-03-30T07:19:42.406Z,47.51
2018-03-30T07:22:08.728Z,47.46
2018-03-30T07:24:35.129Z,47.42
2018-03-30T07:27:02.176Z,46.51
2018-03-30T07:29:29.206Z,45.99
2018-03-30T07:31:57.173Z,45.43
2018-03-30T07:34:24.239Z,44.92
2018-03-30T07:36:51.392Z,44.32
2018-03-30T07:39:18.609Z,43.84
2018-03-30T07:41:44.872Z,43.45
2018-03-30T07:44:12.193Z,42.66
2018-03-30T07:46:38.504Z,41.68
2018-03-30T07:49:04.820Z,40.92
2018-03-30T07:51:31.104Z,40.30
2018-03-30T07:53:57.453Z,40.00
2018-03-30T07:56:23.757Z,39.58
2018-03-30T07:58:50.809Z,38.99
2018-03-30T08:01:17.852Z,39.67
2018-03-30T08:03:44.170Z,39.36
2018-03-30T08:06:10.481Z,39.47
2018-03-30T08:08:36.831Z,39.94
2018-03-30T08:11:10.106Z,40.57
2018-03-30T08:13:36.397Z,40.50
2018-03-30T08:16:03.438Z,39.82
2018-03-30T08:18:30.428Z,40.12
2018-03-30T08:20:56.692Z,39.55
2018-03-30T08:23:23.010Z,39.76
2018-03-30T08:25:49.440Z,40.15
2018-03-30T08:28:15.699Z,41.10
2018-03-30T08:30:42.725Z,40.40
2018-03-30T08:33:09.031Z,39.99
2018-03-30T08:35:35.284Z,39.50
2018-03-30T08:38:01.594Z,38.80
2018-03-30T08:40:27.853Z,38.11
2018-03-30T08:42:54.148Z,37.81
2018-03-30T08:45:21.412Z,37.70
2018-03-30T08:47:47.734Z,37.02
2018-03-30T08:50:14.003Z,36.63
2018-03-30T08:52:40.348Z,35.85
2018-03-30T08:55:07.488Z,36.11
2018-03-30T08:57:34.843Z,35.80
2018-03-30T09:00:01.259Z,36.21
2018-03-30T09:02:27.546Z,36.24
2018-03-30T09:04:53.820Z,36.63
2018-03-30T09:07:20.104Z,36.13
2018-03-30T09:09:46.435Z,35.19
2018-03-30T09:12:12.708Z,34.01
2018-03-30T09:14:39.028Z,33.66
2018-03-30T09:17:05.347Z,33.79
2018-03-30T09:19:31.604Z,32.90
2018-03-30T09:21:57.874Z,32.21
2018-03-30T09:24:24.947Z,31.34
2018-03-30T09:26:51.299Z,31.74
2018-03-30T09:29:17.568Z,30.99
2018-03-30T09:31:46.856Z,30.18
2018-03-30T09:34:13.150Z,30.54
2018-03-30T09:36:40.499Z,30.42
2018-03-30T09:39:06.896Z,30.81
2018-03-30T09:41:33.959Z,29.99
2018-03-30T09:44:00.664Z,30.16
2018-03-30T09:46:27.022Z,30.37
2018-03-30T09:48:54.105Z,30.17
2018-03-30T09:51:20.404Z,29.47
2018-03-30T09:53:47.476Z,30.18
2018-03-30T09:56:13.842Z,29.92
2018-03-30T09:58:40.181Z,28.93
2018-03-30T10:01:12.888Z,29.74
2018-03-30T10:03:39.949Z,29.91
2018-03-30T10:06:06.290Z,29.44
2018-03-30T10:08:32.586Z,29.59
2018-03-30T10:10:59.685Z,29.08
2018-03-30T10:13:25.984Z,29.29
2018-03-30T10:15:53.008Z,29.31
2018-03-30T10:18:20.229Z,29.21
2018-03-30T10:20:46.625Z,29.13
2018-03-30T10:23:12.995Z,29.77
2018-03-30T10:25:39.348Z,29.42
2018-03-30T10:28:05.683Z,29.67
2018-03-30T10:30:32.020Z,30.00
2018-03-30T10:32:58.383Z,30.09
2018-03-30T10:35:24.727Z,30.30
2018-03-30T10:37:51.118Z,29.86
2018-03-30T10:40:17.404Z,28.89
2018-03-30T10:42:43.676Z,28.67
2018-03-30T10:45:09.955Z,28.55
2018-03-30T10:47:36.228Z,28.03
2018-03-30T10:50:02.568Z,28.22
2018-03-30T10:52:28.845Z,27.96
2018-03-30T10:54:55.121Z,27.66
2018-03-30T10:57:21.448Z,27.75
2018-03-30T10:59:47.740Z,28.32
2018-03-30T11:02:14.226Z,28.38
2018-03-30T11:04:40.500Z,28.75
2018-03-30T11:07:06.772Z,28.93
2018-03-30T11:09:33.820Z,28.58
2018-03-30T11:12:00.111Z,28.68
2018-03-30T11:14:26.442Z,28.47
2018-03-30T11:16:52.704Z,28.40
2018-03-30T11:19:19.013Z,27.64
2018-03-30T11:21:45.362Z,27.51
2018-03-30T11:24:12.011Z,27.48
2018-03-30T11:26:38.309Z,27.25
2018-03-30T11:29:04.580Z,26.73
2018-03-30T11:31:30.906Z,27.39
2018-03-30T11:33:57.188Z,26.29
2018-03-30T11:36:23.498Z,24.72
2018-03-30T11:38:50.521Z,22.71
2018-03-30T11:41:16.791Z,22.06
2018-03-30T11:43:43.087Z,21.33
2018-03-30T11:46:09.405Z,20.33
2018-03-30T11:48:35.673Z,19.01
2018-03-30T11:51:02.111Z,18.36
2018-03-30T11:53:28.434Z,16.89
2018-03-30T11:55:55.527Z,15.51
2018-03-30T11:58:21.882Z,14.28
2018-03-30T12:00:48.216Z,13.03
2018-03-30T12:03:14.544Z,12.98
2018-03-30T12:05:40.874Z,12.35
2018-03-30T12:08:07.214Z,11.92
2018-03-30T12:10:33.510Z,12.98
2018-03-30T12:12:59.811Z,13.33
2018-03-30T12:15:26.056Z,12.95
2018-03-30T12:17:52.316Z,11.96
2018-03-30T12:20:18.643Z,12.02
2018-03-30T12:22:44.882Z,11.45
2018-03-30T12:25:12.164Z,12.10
2018-03-30T12:27:39.190Z,12.22
2018-03-30T12:30:05.475Z,12.21
2018-03-30T12:32:31.764Z,12.89
2018-03-30T12:34:58.814Z,13.24
2018-03-30T12:37:26.048Z,12.86
2018-03-30T12:39:52.368Z,12.97
2018-03-30T12:42:18.658Z,11.85
2018-03-30T12:44:44.954Z,11.89
2018-03-30T12:47:11.270Z,11.53
2018-03-30T12:49:37.924Z,11.53
2018-03-30T12:52:04.197Z,10.99
2018-03-30T12:54:30.482Z,11.07
2018-03-30T12:56:56.750Z,11.38
2018-03-30T12:59:23.348Z,11.30
2018-03-30T13:01:49.718Z,11.45
2018-03-30T13:04:16.857Z,11.83
2018-03-30T13:06:43.182Z,10.27
2018-03-30T13:09:10.284Z,8.99
2018-03-30T13:11:36.599Z,8.47
2018-03-30T13:14:03.689Z,9.04
2018-03-30T13:16:30.642Z,8.41
2018-03-30T13:18:57.906Z,7.90
2018-03-30T13:21:24.907Z,7.98
2018-03-30T13:23:51.268Z,8.69
2018-03-30T13:26:17.520Z,7.87
2018-03-30T13:28:44.586Z,7.64
2018-03-30T13:31:10.944Z,8.29
2018-03-30T13:33:37.606Z,8.24
2018-03-30T13:36:03.889Z,8.92
2018-03-30T13:38:30.154Z,8.57
2018-03-30T13:40:56.432Z,8.28
2018-03-30T13:43:23.465Z,7.72
2018-03-30T13:45:50.496Z,7.43
2018-03-30T13:48:16.777Z,7.72
2018-03-30T13:53:50.337Z,8.94
2018-03-30T13:56:18.626Z,9.31
2018-03-30T13:58:47.786Z,8.42
2018-03-30T14:01:14.909Z,8.08
2018-03-30T14:03:47.874Z,8.55
2018-03-30T14:06:32.752Z,8.36
2018-03-30T14:09:22.852Z,9.65
2018-03-30T14:11:50.844Z,11.64
2018-03-30T14:14:17.128Z,10.04
2018-03-30T14:16:49.143Z,9.40
2018-03-30T14:19:17.381Z,8.95
2018-03-30T14:21:49.236Z,8.27
2018-03-30T14:24:20.154Z,7.11
2018-03-30T14:26:51.452Z,6.15
2018-03-30T14:29:20.572Z,5.92
2018-03-30T14:34:51.829Z,6.08
2018-03-30T14:37:32.832Z,7.13
2018-03-30T14:40:10.018Z,8.08
2018-03-30T14:42:38.023Z,9.20
2018-03-30T14:48:19.699Z,10.01
2018-03-30T14:50:56.074Z,11.06
2018-03-30T14:53:30.511Z,10.99
2018-03-30T14:58:55.514Z,8.67
2018-03-30T15:01:22.583Z,8.56
2018-03-30T15:04:02.816Z,9.61
2018-03-30T15:06:35.936Z,10.62
2018-03-30T15:09:09.973Z,11.34
2018-03-30T15:11:54.303Z,9.74
2018-03-30T15:14:22.142Z,8.18
2018-03-30T15:16:50.217Z,7.23
2018-03-30T15:22:22.631Z,7.57
2018-03-30T15:24:52.526Z,7.62
2018-03-30T15:27:23.471Z,7.59
2018-03-30T15:30:06.879Z,8.14
2018-03-30T15:32:43.078Z,7.55
2018-03-30T15:35:11.989Z,7.82
2018-03-30T15:37:39.115Z,7.37
2018-03-30T15:40:09.042Z,7.83
2018-03-30T15:42:39.136Z,9.05
2018-03-30T15:45:10.354Z,10.97
2018-03-30T15:47:36.687Z,11.43
2018-03-30T15:50:03.036Z,11.45
2018-03-30T15:52:29.367Z,11.01
2018-03-30T15:54:55.693Z,10.38
2018-03-30T15:57:22.022Z,10.13
2018-03-30T15:59:50.124Z,11.26
2018-03-30T16:02:17.860Z,12.05
2018-03-30T16:04:44.205Z,12.37
2018-03-30T16:07:10.736Z,12.97
2018-03-30T16:09:38.187Z,13.42
2018-03-30T16:12:04.807Z,15.03
2018-03-30T16:14:31.141Z,16.73
2018-03-30T16:16:57.402Z,18.34
2018-03-30T16:19:23.621Z,18.75
2018-03-30T16:21:49.733Z,19.94
2018-03-30T16:24:15.851Z,21.23
2018-03-30T16:26:41.969Z,22.49
2018-03-30T16:29:08.109Z,23.34
2018-03-30T16:31:34.201Z,24.31
2018-03-30T16:34:00.307Z,25.30
2018-03-30T16:36:27.202Z,25.79
2018-03-30T16:38:53.339Z,26.72
2018-03-30T16:41:19.471Z,27.04
2018-03-30T16:43:45.629Z,27.63
2018-03-30T16:46:12.526Z,27.98
2018-03-30T16:48:38.699Z,28.61
2018-03-30T16:51:05.588Z,28.46
2018-03-30T16:53:31.718Z,28.68
2018-03-30T16:55:58.097Z,28.72
2018-03-30T16:58:25.034Z,29.11
2018-03-30T17:00:51.127Z,29.37
2018-03-30T17:03:17.248Z,29.75
2018-03-30T17:05:43.648Z,30.08
2018-03-30T17:08:09.804Z,30.35
2018-03-30T17:10:35.926Z,30.60
2018-03-30T17:13:02.126Z,31.27
2018-03-30T17:15:29.004Z,31.33
2018-03-30T17:17:55.285Z,31.67
2018-03-30T17:20:22.923Z,31.51
2018-03-30T17:22:49.085Z,32.04
2018-03-30T17:25:16.029Z,32.50
2018-03-30T17:27:42.925Z,32.65
2018-03-30T17:30:09.056Z,32.99
2018-03-30T17:32:35.191Z,33.30
2018-03-30T17:35:02.264Z,33.74
2018-03-30T17:37:29.195Z,33.90
2018-03-30T17:39:55.313Z,34.30
2018-03-30T17:42:21.438Z,34.56
2018-03-30T17:44:47.596Z,34.93
2018-03-30T17:47:14.672Z,35.28
2018-03-30T17:49:40.812Z,35.60
2018-03-30T17:52:06.956Z,35.83
2018-03-30T17:54:33.096Z,36.36
2018-03-30T17:56:59.189Z,36.72
2018-03-30T17:59:25.429Z,36.79
2018-03-30T18:01:51.554Z,37.11
2018-03-30T18:04:17.768Z,37.43
2018-03-30T18:06:43.921Z,37.88
2018-03-30T18:09:10.057Z,38.08
2018-03-30T18:11:36.967Z,38.60
2018-03-30T18:14:03.123Z,38.63
2018-03-30T18:16:29.253Z,38.91
2018-03-30T18:18:55.391Z,38.86
2018-03-30T18:21:22.379Z,39.20
2018-03-30T18:23:49.255Z,39.14
2018-03-30T18:26:16.380Z,39.25
2018-03-30T18:28:42.512Z,39.71
2018-03-30T18:31:08.680Z,40.09
2018-03-30T18:33:34.810Z,40.48
2018-03-30T18:36:01.066Z,40.62
2018-03-30T18:38:27.924Z,41.32
2018-03-30T18:40:54.782Z,41.21
2018-03-30T18:43:20.981Z,41.59
2018-03-30T18:45:47.142Z,41.97
2018-03-30T18:48:13.708Z,42.28
2018-03-30T18:50:39.835Z,42.38
2018-03-30T18:53:06.112Z,42.42
2018-03-30T18:55:33.010Z,42.26
2018-03-30T18:57:59.066Z,42.80
2018-03-30T19:00:25.222Z,42.85
2018-03-30T19:02:51.351Z,43.21
2018-03-30T19:05:17.615Z,43.44
2018-03-30T19:07:43.737Z,43.58
2018-03-30T19:10:10.107Z,43.70
2018-03-30T19:12:36.222Z,43.71
2018-03-30T19:15:02.347Z,43.81
2018-03-30T19:17:28.544Z,44.21
2018-03-30T19:19:54.671Z,44.08
2018-03-30T19:22:20.883Z,43.91
2018-03-30T19:24:47.029Z,43.96
2018-03-30T19:27:13.267Z,43.98
2018-03-30T19:29:39.405Z,43.43
2018-03-30T19:32:05.545Z,43.99
2018-03-30T19:34:32.422Z,44.24
2018-03-30T19:36:59.298Z,44.01
2018-03-30T19:39:25.419Z,44.25
2018-03-30T19:41:51.538Z,44.35
2018-03-30T19:44:17.712Z,44.38
2018-03-30T19:46:43.838Z,44.64
2018-03-30T19:49:10.388Z,44.71
2018-03-30T19:51:37.226Z,45.12
2018-03-30T19:54:03.307Z,45.61
2018-03-30T19:56:29.408Z,45.87
2018-03-30T19:58:55.516Z,46.05
2018-03-30T20:01:22.384Z,46.32
2018-03-30T20:03:48.518Z,46.55
2018-03-30T20:06:14.665Z,46.88
2018-03-30T20:08:40.874Z,46.81
2018-03-30T20:11:06.984Z,47.01
2018-03-30T20:13:33.080Z,47.22
2018-03-30T20:15:59.208Z,47.35
2018-03-30T20:18:25.315Z,47.75
2018-03-30T20:20:51.496Z,47.77
2018-03-30T20:23:17.674Z,48.14
2018-03-30T20:25:43.778Z,48.17
2018-03-30T20:28:09.933Z,48.30
2018-03-30T20:30:36.165Z,48.59
2018-03-30T20:33:02.313Z,48.73
2018-03-30T20:35:29.173Z,48.92
2018-03-30T20:37:55.303Z,49.08
2018-03-30T20:40:21.403Z,49.06
2018-03-30T20:42:48.259Z,49.24
2018-03-30T20:45:14.407Z,49.44
2018-03-30T20:47:40.528Z,49.51
2018-03-30T20:50:06.668Z,49.99
2018-03-30T20:52:32.781Z,50.15
2018-03-30T20:54:58.985Z,50.46
2018-03-30T20:57:25.853Z,50.78
2018-03-30T20:59:51.948Z,51.05
2018-03-30T21:02:18.846Z,51.12
2018-03-30T21:04:45.717Z,51.56
2018-03-30T21:07:11.852Z,51.27
2018-03-30T21:09:37.953Z,51.67
2018-03-30T21:12:04.804Z,51.57
2018-03-30T21:14:30.958Z,51.44
2018-03-30T21:16:57.809Z,51.61
2018-03-30T21:19:24.968Z,52.03
2018-03-30T21:21:51.815Z,51.46
2018-03-30T21:24:18.741Z,51.94
2018-03-30T21:26:45.571Z,52.26
2018-03-30T21:29:11.737Z,52.66
2018-03-30T21:31:37.918Z,52.84
2018-03-30T21:34:04.139Z,52.54
2018-03-30T21:36:30.304Z,52.50
2018-03-30T21:38:57.151Z,52.46
2018-03-30T21:41:24.131Z,52.94
2018-03-30T21:43:50.937Z,52.86
2018-03-30T21:46:17.816Z,53.12
2018-03-30T21:48:43.944Z,53.42
2018-03-30T21:51:10.030Z,53.80
2018-03-30T21:53:36.862Z,53.88
2018-03-30T21:56:03.150Z,54.08
2018-03-30T21:58:29.276Z,54.57
2018-03-30T22:00:55.421Z,54.91
2018-03-30T22:03:21.567Z,55.62
2018-03-30T22:05:47.704Z,55.77
2018-03-30T22:08:14.552Z,55.91
2018-03-30T22:10:41.382Z,56.10
2018-03-30T22:13:07.517Z,56.02
2018-03-30T22:15:34.358Z,56.49
2018-03-30T22:18:01.171Z,56.55
2018-03-30T22:20:27.321Z,56.74
2018-03-30T22:22:53.445Z,56.94
2018-03-30T22:25:19.573Z,57.08
2018-03-30T22:27:45.744Z,56.97
2018-03-30T22:30:13.277Z,57.02
2018-03-30T22:32:40.402Z,57.00
2018-03-30T22:35:06.509Z,56.99
2018-03-30T22:37:32.649Z,57.13
2018-03-30T22:39:58.761Z,57.77
2018-03-30T22:42:24.922Z,58.19
2018-03-30T22:44:51.144Z,58.43
2018-03-30T22:47:17.473Z,58.37
2018-03-30T22:49:43.571Z,58.48
2018-03-30T22:52:09.676Z,58.79
2018-03-30T22:54:35.760Z,58.99
2018-03-30T22:57:01.869Z,59.10
2018-03-30T22:59:28.008Z,59.16
2018-03-30T23:01:54.142Z,59.18
2018-03-30T23:04:20.972Z,59.16
2018-03-30T23:06:47.085Z,59.31
2018-03-30T23:09:14.734Z,59.07
2018-03-30T23:11:40.883Z,58.70
2018-03-30T23:14:07.008Z,58.85
2018-03-30T23:16:33.144Z,59.09
2018-03-30T23:18:59.316Z,58.99
2018-03-30T23:21:25.426Z,59.57
2018-03-30T23:23:51.512Z,59.59
2018-03-30T23:26:17.633Z,59.83
2018-03-30T23:28:43.732Z,59.94
2018-03-30T23:31:09.890Z,60.05
2018-03-30T23:33:36.030Z,60.41
2018-03-30T23:36:02.143Z,60.46
2018-03-30T23:38:28.261Z,60.85
2018-03-30T23:40:54.461Z,61.24
2018-03-30T23:43:20.610Z,61.46
2018-03-30T23:45:46.850Z,61.41
2018-03-30T23:48:12.979Z,61.49
2018-03-30T23:50:39.085Z,61.32
2018-03-30T23:53:05.237Z,60.51
2018-03-30T23:55:31.336Z,60.52
2018-03-30T23:57:57.445Z,60.24
